Time;durP1;ratioP1;P1;durP2;ratioP2;P2;SDS_P1;SDS_P2;PMS_P1;PMS_P2;Temp;Humidity;BMP_temperature;BMP_pressure;BME280_temperature;BME280_humidity;BME280_pressure;Samples;Min_cycle;Max_cycle;Signal;HPM_P1;HPM_P2
2020/12/24 00:00:22;;;;;;;5.47;1.40;;;5.30;99.90;;;;;;4974948;28;20174;-50
2020/12/24 00:02:48;;;;;;;6.43;1.20;;;5.20;99.90;;;;;;4966729;28;20909;-43
2020/12/24 00:05:14;;;;;;;4.33;1.40;;;5.20;99.90;;;;;;4972877;28;20185;-47
2020/12/24 00:07:40;;;;;;;6.77;1.87;;;5.20;99.90;;;;;;4979002;28;20193;-51
2020/12/24 00:10:06;;;;;;;2.77;1.23;;;5.20;99.90;;;;;;4980227;28;20569;-45
2020/12/24 00:12:32;;;;;;;2.50;1.33;;;5.20;99.90;;;;;;4979189;28;20222;-47
2020/12/24 00:14:57;;;;;;;3.33;1.50;;;5.20;99.90;;;;;;4983039;28;20278;-47
2020/12/24 00:17:23;;;;;;;6.33;1.13;;;5.20;99.90;;;;;;4960884;28;20189;-46
2020/12/24 00:19:48;;;;;;;3.20;1.40;;;5.20;99.90;;;;;;4977681;28;20470;-47
2020/12/24 00:22:14;;;;;;;6.53;1.47;;;5.10;99.90;;;;;;4982013;28;20529;-53
2020/12/24 00:24:39;;;;;;;6.77;1.40;;;5.10;99.90;;;;;;4964367;28;20175;-45
2020/12/24 00:27:05;;;;;;;3.67;1.10;;;5.10;99.90;;;;;;4986517;28;20272;-50
2020/12/24 00:29:31;;;;;;;3.43;1.43;;;5.10;99.90;;;;;;4975759;28;20173;-44
2020/12/24 00:31:56;;;;;;;7.03;1.37;;;5.10;99.90;;;;;;4971175;28;20205;-48
2020/12/24 00:34:22;;;;;;;5.40;1.37;;;5.10;99.90;;;;;;4982158;28;20178;-47
2020/12/24 00:36:47;;;;;;;4.73;1.20;;;5.00;99.90;;;;;;4983399;28;20943;-49
2020/12/24 00:39:13;;;;;;;2.60;1.10;;;5.00;99.90;;;;;;4988580;28;20198;-48
2020/12/24 00:41:38;;;;;;;2.70;1.33;;;5.00;99.90;;;;;;4971644;28;20217;-45
2020/12/24 00:44:04;;;;;;;4.97;1.20;;;4.90;99.90;;;;;;4984332;28;20641;-47
2020/12/24 00:46:29;;;;;;;3.53;0.80;;;4.90;99.90;;;;;;4984981;28;20202;-47
2020/12/24 00:48:55;;;;;;;4.40;1.07;;;4.90;99.90;;;;;;4967350;28;20250;-51
2020/12/24 00:51:20;;;;;;;4.13;1.30;;;4.90;99.90;;;;;;4980258;28;20173;-48
2020/12/24 00:53:46;;;;;;;2.80;0.70;;;4.90;99.90;;;;;;4984142;28;20203;-47
2020/12/24 00:56:11;;;;;;;2.33;1.00;;;4.90;99.90;;;;;;4976423;28;20202;-47
2020/12/24 00:58:37;;;;;;;1.57;0.70;;;4.90;99.90;;;;;;4969574;28;20186;-46
2020/12/24 01:01:04;;;;;;;7.40;1.77;;;4.90;99.90;;;;;;4977578;28;20181;-48
2020/12/24 01:03:29;;;;;;;1.87;0.90;;;4.80;99.90;;;;;;4956174;28;20689;-44
2020/12/24 01:05:55;;;;;;;5.10;0.97;;;4.80;99.90;;;;;;4976950;28;20206;-49
2020/12/24 01:08:20;;;;;;;2.43;0.97;;;4.80;99.90;;;;;;4987114;28;20531;-46
2020/12/24 01:10:46;;;;;;;3.00;1.00;;;4.80;99.90;;;;;;4982853;28;20212;-47
2020/12/24 01:13:11;;;;;;;2.17;1.10;;;4.80;99.90;;;;;;4978669;28;20771;-47
2020/12/24 01:15:37;;;;;;;4.90;1.30;;;4.80;99.90;;;;;;4969266;28;20196;-44
2020/12/24 01:18:03;;;;;;;4.40;0.90;;;4.80;99.90;;;;;;4985729;28;20642;-49
2020/12/24 01:20:28;;;;;;;2.03;1.00;;;4.80;99.90;;;;;;4959369;28;20198;-49
2020/12/24 01:22:53;;;;;;;2.53;1.07;;;4.80;99.90;;;;;;4972767;28;20384;-44
2020/12/24 01:25:19;;;;;;;4.03;1.27;;;4.80;99.90;;;;;;4970339;28;20209;-47
2020/12/24 01:27:44;;;;;;;4.30;1.07;;;4.70;99.90;;;;;;4975100;28;20186;-46
2020/12/24 01:30:10;;;;;;;1.90;0.70;;;4.70;99.90;;;;;;4983347;28;20193;-43
2020/12/24 01:32:35;;;;;;;2.77;1.00;;;4.70;99.90;;;;;;4974492;28;20194;-49
2020/12/24 01:35:01;;;;;;;3.67;1.03;;;4.70;99.90;;;;;;4960391;28;20666;-48
2020/12/24 01:37:27;;;;;;;1.17;1.07;;;4.70;99.90;;;;;;4968106;28;20166;-50
2020/12/24 01:39:52;;;;;;;4.77;1.10;;;4.70;99.90;;;;;;4965824;28;20170;-45
2020/12/24 01:42:19;;;;;;;3.33;1.20;;;4.70;99.90;;;;;;4978900;28;20218;-48
2020/12/24 01:44:46;;;;;;;5.93;1.10;;;4.70;99.90;;;;;;4976508;28;20208;-50
2020/12/24 01:47:11;;;;;;;4.00;1.20;;;4.70;99.90;;;;;;4970745;28;20325;-47
2020/12/24 01:49:37;;;;;;;3.13;0.93;;;4.70;99.90;;;;;;4957532;28;20647;-44
2020/12/24 01:52:03;;;;;;;2.57;0.77;;;4.70;99.90;;;;;;4973757;28;20206;-48
2020/12/24 01:54:28;;;;;;;2.27;1.00;;;4.70;99.90;;;;;;4977841;28;20182;-48
2020/12/24 01:56:54;;;;;;;2.43;0.97;;;4.70;99.90;;;;;;4983042;28;20488;-51
2020/12/24 01:59:20;;;;;;;3.10;0.97;;;4.70;99.90;;;;;;4981905;28;20219;-45
2020/12/24 02:01:47;;;;;;;1.17;0.80;;;4.70;99.90;;;;;;4964929;28;20205;-50
2020/12/24 02:04:13;;;;;;;6.80;1.00;;;4.60;99.90;;;;;;4971851;28;20181;-50
2020/12/24 02:06:49;;;;;;;2.50;0.80;;;4.60;99.90;;;;;;4958291;28;20205;-46
2020/12/24 02:09:14;;;;;;;2.90;1.30;;;4.60;99.90;;;;;;4980381;28;20173;-49
2020/12/24 02:11:42;;;;;;;7.57;1.17;;;4.60;99.90;;;;;;4981772;28;20810;-46
2020/12/24 02:14:07;;;;;;;5.70;0.80;;;4.60;99.90;;;;;;4981663;28;20212;-47
2020/12/24 02:16:34;;;;;;;2.63;0.87;;;4.60;99.90;;;;;;4969809;28;20181;-44
2020/12/24 02:19:01;;;;;;;3.77;1.00;;;4.60;99.90;;;;;;4979214;28;20178;-45
2020/12/24 02:21:26;;;;;;;5.67;1.10;;;4.60;99.90;;;;;;4969397;28;20201;-46
2020/12/24 02:23:52;;;;;;;2.07;0.90;;;4.60;99.90;;;;;;4975256;28;20182;-47
2020/12/24 02:26:17;;;;;;;3.37;0.80;;;4.60;99.90;;;;;;4964695;28;20277;-44
2020/12/24 02:28:42;;;;;;;2.80;1.10;;;4.60;99.90;;;;;;4971583;28;20178;-43
2020/12/24 02:31:09;;;;;;;2.10;0.80;;;4.50;99.90;;;;;;4969415;28;20184;-43
2020/12/24 02:33:36;;;;;;;1.60;0.90;;;4.50;99.90;;;;;;4967820;28;20194;-51
2020/12/24 02:36:02;;;;;;;3.43;1.03;;;4.50;99.90;;;;;;4965613;28;20208;-48
2020/12/24 02:38:27;;;;;;;1.20;0.90;;;4.50;99.90;;;;;;4972553;28;20260;-49
2020/12/24 02:40:53;;;;;;;2.30;0.87;;;4.50;99.90;;;;;;4976445;28;20261;-48
2020/12/24 02:43:18;;;;;;;4.43;0.90;;;4.50;99.90;;;;;;4969556;28;20239;-47
2020/12/24 02:45:44;;;;;;;2.13;0.97;;;4.50;99.90;;;;;;4979191;28;20250;-48
2020/12/24 02:48:09;;;;;;;1.10;0.67;;;4.50;99.90;;;;;;4978717;28;20212;-48
2020/12/24 02:50:35;;;;;;;4.87;1.00;;;4.40;99.90;;;;;;4968593;28;20189;-45
2020/12/24 02:53:00;;;;;;;1.33;0.77;;;4.40;99.90;;;;;;4965612;28;20690;-49
2020/12/24 02:55:26;;;;;;;2.73;0.63;;;4.40;99.90;;;;;;4973698;28;20193;-48
2020/12/24 02:57:51;;;;;;;1.33;0.90;;;4.30;99.90;;;;;;4974290;28;20279;-45
2020/12/24 03:00:17;;;;;;;2.60;0.80;;;4.40;99.90;;;;;;4976594;28;20217;-47
2020/12/24 03:02:42;;;;;;;4.83;0.90;;;4.30;99.90;;;;;;4980450;28;20197;-49
2020/12/24 03:05:08;;;;;;;2.40;0.90;;;4.30;99.90;;;;;;4978073;28;20208;-44
2020/12/24 03:07:34;;;;;;;0.60;0.60;;;4.30;99.90;;;;;;4958083;28;20182;-48
2020/12/24 03:09:59;;;;;;;2.00;0.67;;;4.30;99.90;;;;;;4981057;28;20181;-46
2020/12/24 03:12:26;;;;;;;1.83;0.90;;;4.30;99.90;;;;;;4982637;28;20256;-47
2020/12/24 03:14:52;;;;;;;2.07;0.57;;;4.30;99.90;;;;;;4981670;28;20925;-48
2020/12/24 03:17:19;;;;;;;1.40;0.40;;;4.20;99.90;;;;;;4982371;28;20201;-47
2020/12/24 03:19:44;;;;;;;2.97;0.73;;;4.20;99.90;;;;;;4974260;28;20186;-44
2020/12/24 03:22:10;;;;;;;1.87;0.90;;;4.20;99.90;;;;;;4982337;28;20533;-43
2020/12/24 03:24:35;;;;;;;1.00;0.70;;;4.20;99.90;;;;;;4967160;28;20205;-51
2020/12/24 03:27:01;;;;;;;1.33;0.70;;;4.20;99.90;;;;;;4969316;28;20213;-49
2020/12/24 03:29:26;;;;;;;0.70;0.53;;;4.20;99.90;;;;;;4973710;28;20200;-49
2020/12/24 03:31:52;;;;;;;0.63;0.63;;;4.10;99.90;;;;;;4984470;28;20200;-48
2020/12/24 03:34:17;;;;;;;1.60;0.50;;;4.10;99.90;;;;;;4980553;28;20178;-47
2020/12/24 03:36:43;;;;;;;0.87;0.67;;;4.10;99.90;;;;;;4974432;28;20506;-49
2020/12/24 03:39:08;;;;;;;3.60;1.07;;;4.10;99.90;;;;;;4965774;28;20244;-47
2020/12/24 03:41:34;;;;;;;0.60;0.60;;;4.10;99.90;;;;;;4984231;28;20697;-46
2020/12/24 03:43:59;;;;;;;0.60;0.60;;;4.10;99.90;;;;;;4976611;28;20283;-53
2020/12/24 03:46:25;;;;;;;1.20;0.73;;;4.10;99.90;;;;;;4988517;28;20206;-46
2020/12/24 03:48:50;;;;;;;1.37;0.87;;;4.10;99.90;;;;;;4983336;28;20186;-47
2020/12/24 03:51:16;;;;;;;0.70;0.70;;;4.00;99.90;;;;;;4979580;28;20253;-50
2020/12/24 03:53:41;;;;;;;0.70;0.70;;;4.00;99.90;;;;;;4960140;28;20275;-51
2020/12/24 03:56:06;;;;;;;4.30;1.20;;;4.00;99.90;;;;;;4984652;28;20781;-50
2020/12/24 03:58:32;;;;;;;1.13;1.03;;;4.00;99.90;;;;;;4979971;28;20189;-45
2020/12/24 04:00:57;;;;;;;2.57;1.10;;;4.00;99.90;;;;;;4984269;28;20434;-48
2020/12/24 04:03:23;;;;;;;1.93;0.83;;;4.00;99.90;;;;;;4979492;28;20205;-48
2020/12/24 04:05:48;;;;;;;0.90;0.90;;;3.90;99.90;;;;;;4973447;28;20837;-48
2020/12/24 04:08:14;;;;;;;1.23;0.90;;;4.00;99.90;;;;;;4975505;28;20174;-51
2020/12/24 04:10:39;;;;;;;1.23;0.83;;;4.00;99.90;;;;;;4960677;28;20197;-46
2020/12/24 04:13:05;;;;;;;2.40;0.80;;;3.90;99.90;;;;;;4976314;28;20205;-48
2020/12/24 04:15:30;;;;;;;0.90;0.77;;;3.90;99.90;;;;;;4971127;28;20192;-49
2020/12/24 04:17:56;;;;;;;1.10;1.00;;;3.80;99.90;;;;;;4977025;28;20236;-48
2020/12/24 04:20:21;;;;;;;1.53;0.70;;;3.80;99.90;;;;;;4973867;28;20194;-47
2020/12/24 04:22:47;;;;;;;0.30;0.30;;;3.80;99.90;;;;;;4982569;28;20946;-52
2020/12/24 04:25:13;;;;;;;0.83;0.43;;;3.70;99.90;;;;;;4961693;28;20221;-48
2020/12/24 04:27:39;;;;;;;0.60;0.50;;;3.60;99.90;;;;;;4975024;28;20174;-46
2020/12/24 04:30:05;;;;;;;0.63;0.50;;;3.60;99.90;;;;;;4970244;28;20247;-51
2020/12/24 04:32:32;;;;;;;0.40;0.40;;;3.60;99.90;;;;;;4975657;28;20224;-43
2020/12/24 04:34:58;;;;;;;0.43;0.43;;;3.50;99.90;;;;;;4986809;28;20248;-48
2020/12/24 04:37:23;;;;;;;1.53;0.60;;;3.50;99.90;;;;;;4985243;28;20194;-48
2020/12/24 04:39:48;;;;;;;0.50;0.50;;;3.50;99.90;;;;;;4978449;28;20240;-51
2020/12/24 04:42:15;;;;;;;0.50;0.50;;;3.40;99.90;;;;;;4956512;28;20213;-51
2020/12/24 04:44:42;;;;;;;0.90;0.40;;;3.40;99.90;;;;;;4972574;28;20268;-43
2020/12/24 04:47:08;;;;;;;0.67;0.30;;;3.40;99.90;;;;;;4976195;28;20241;-49
2020/12/24 04:49:34;;;;;;;0.63;0.47;;;3.30;99.90;;;;;;4973506;28;20182;-49
2020/12/24 04:52:03;;;;;;;2.17;0.40;;;3.30;99.90;;;;;;4971883;28;20300;-46
2020/12/24 04:54:32;;;;;;;0.30;0.30;;;3.30;99.90;;;;;;4973263;28;20188;-52
2020/12/24 04:57:06;;;;;;;0.40;0.40;;;3.30;99.90;;;;;;4958973;28;20220;-47
2020/12/24 04:59:32;;;;;;;1.50;0.40;;;3.30;99.90;;;;;;4976896;28;20192;-50
2020/12/24 05:01:59;;;;;;;0.20;0.20;;;3.30;99.90;;;;;;4970169;28;20303;-47
2020/12/24 05:04:25;;;;;;;1.43;0.37;;;3.30;99.90;;;;;;4976270;28;20185;-47
2020/12/24 05:06:50;;;;;;;2.27;0.20;;;3.20;99.90;;;;;;4983224;28;20268;-48
2020/12/24 05:09:15;;;;;;;0.63;0.30;;;3.20;99.90;;;;;;4987685;28;20181;-50
2020/12/24 05:11:44;;;;;;;0.20;0.20;;;3.20;99.90;;;;;;4953703;28;20351;-47
2020/12/24 05:14:23;;;;;;;0.10;0.10;;;3.20;99.90;;;;;;4987696;28;20634;-47
2020/12/24 05:17:06;;;;;;;0.40;0.30;;;3.10;99.90;;;;;;4974490;28;20204;-46
2020/12/24 05:19:36;;;;;;;0.57;0.20;;;3.10;99.90;;;;;;4977276;28;20181;-49
2020/12/24 05:22:18;;;;;;;0.20;0.20;;;3.10;99.90;;;;;;4972147;28;20217;-45
2020/12/24 05:24:43;;;;;;;0.30;0.30;;;3.00;99.90;;;;;;4962971;28;20279;-46
2020/12/24 05:27:11;;;;;;;1.40;0.10;;;3.00;99.90;;;;;;4963957;28;20218;-44
2020/12/24 05:29:42;;;;;;;0.27;0.20;;;3.00;99.90;;;;;;4968977;28;20335;-50
2020/12/24 05:32:08;;;;;;;0.43;0.30;;;3.00;99.90;;;;;;4974306;28;20254;-46
2020/12/24 05:34:34;;;;;;;0.50;0.40;;;3.00;99.90;;;;;;4975825;28;20189;-52
2020/12/24 05:37:16;;;;;;;0.50;0.33;;;3.00;99.90;;;;;;4970219;28;20741;-44
2020/12/24 05:39:47;;;;;;;0.40;0.23;;;3.00;99.90;;;;;;4971083;28;20176;-44
2020/12/24 05:42:13;;;;;;;0.43;0.23;;;2.90;99.90;;;;;;4957958;28;20300;-47
2020/12/24 05:44:40;;;;;;;0.20;0.20;;;2.90;99.90;;;;;;4978241;28;20224;-47
2020/12/24 05:47:06;;;;;;;1.20;0.30;;;2.90;99.90;;;;;;4977564;28;20205;-52
2020/12/24 05:49:35;;;;;;;0.20;0.20;;;2.90;99.90;;;;;;4980483;28;20189;-45
2020/12/24 05:52:03;;;;;;;0.47;0.30;;;2.90;99.90;;;;;;4966515;28;20200;-45
2020/12/24 05:54:32;;;;;;;0.20;0.20;;;2.80;99.90;;;;;;4980272;28;20263;-48
2020/12/24 05:56:59;;;;;;;0.30;0.30;;;2.80;99.90;;;;;;4960471;28;20197;-47
2020/12/24 05:59:26;;;;;;;0.10;0.10;;;2.70;99.90;;;;;;4964084;28;20193;-48
2020/12/24 06:02:03;;;;;;;0.40;0.27;;;2.70;99.90;;;;;;4976177;28;20207;-48
2020/12/24 06:04:43;;;;;;;0.10;0.10;;;2.60;99.90;;;;;;4978419;28;20189;-51
2020/12/24 06:07:09;;;;;;;0.30;0.30;;;2.60;99.90;;;;;;4969697;28;20220;-48
2020/12/24 06:09:39;;;;;;;0.93;0.40;;;2.50;99.90;;;;;;4968139;28;20173;-51
2020/12/24 06:12:22;;;;;;;0.20;0.20;;;2.50;99.90;;;;;;4955023;28;20223;-45
2020/12/24 06:14:52;;;;;;;0.40;0.40;;;2.50;99.90;;;;;;4969181;28;20921;-45
2020/12/24 06:17:19;;;;;;;0.43;0.20;;;2.40;99.90;;;;;;4983873;28;20176;-48
2020/12/24 06:19:45;;;;;;;0.40;0.40;;;2.50;99.90;;;;;;4972061;28;20192;-44
2020/12/24 06:22:11;;;;;;;0.40;0.40;;;2.50;99.90;;;;;;4982018;28;20699;-50
2020/12/24 06:24:44;;;;;;;0.40;0.40;;;2.60;99.90;;;;;;4986063;28;20650;-46
2020/12/24 06:27:30;;;;;;;0.60;0.60;;;2.60;99.90;;;;;;4974586;28;20200;-45
2020/12/24 06:30:12;;;;;;;0.57;0.50;;;2.60;99.90;;;;;;4960398;28;20243;-47
2020/12/24 06:32:40;;;;;;;0.50;0.43;;;2.60;99.90;;;;;;4969305;28;20236;-49
2020/12/24 06:35:06;;;;;;;0.50;0.50;;;2.70;99.90;;;;;;4962914;28;20195;-46
2020/12/24 06:37:39;;;;;;;0.70;0.70;;;2.70;99.90;;;;;;4976973;28;20241;-50
2020/12/24 06:40:06;;;;;;;2.67;0.77;;;2.70;99.90;;;;;;4979628;28;20178;-48
2020/12/24 06:42:40;;;;;;;0.63;0.40;;;2.70;99.90;;;;;;4977021;28;20212;-47
2020/12/24 06:45:07;;;;;;;0.33;0.33;;;2.70;99.90;;;;;;4962132;28;20781;-47
2020/12/24 06:47:32;;;;;;;0.60;0.60;;;2.80;99.90;;;;;;4983941;28;20892;-47
2020/12/24 06:49:58;;;;;;;2.90;0.67;;;2.80;99.90;;;;;;4980628;28;20189;-47
2020/12/24 06:52:28;;;;;;;1.07;0.53;;;2.80;99.90;;;;;;4979466;28;20559;-45
2020/12/24 06:55:13;;;;;;;1.20;0.77;;;2.80;99.90;;;;;;4981148;28;20200;-47
2020/12/24 06:57:41;;;;;;;0.73;0.57;;;2.90;99.90;;;;;;4984990;28;20205;-47
2020/12/24 07:00:21;;;;;;;1.17;0.60;;;2.90;99.90;;;;;;4963822;28;20198;-43
2020/12/24 07:02:53;;;;;;;1.10;1.00;;;3.00;99.90;;;;;;4980307;28;20212;-51
2020/12/24 07:05:41;;;;;;;1.43;0.80;;;2.90;99.90;;;;;;4978457;28;20200;-44
2020/12/24 07:08:07;;;;;;;0.80;0.80;;;3.00;99.90;;;;;;4973902;28;20670;-45
2020/12/24 07:10:44;;;;;;;1.70;0.90;;;3.00;99.90;;;;;;4979449;28;20206;-47
2020/12/24 07:13:29;;;;;;;1.10;0.93;;;3.00;99.90;;;;;;4975879;28;20216;-50
2020/12/24 07:15:54;;;;;;;1.73;1.50;;;3.10;99.90;;;;;;4962887;28;20205;-48
2020/12/24 07:18:21;;;;;;;1.57;1.47;;;3.10;99.90;;;;;;4968758;28;20196;-48
2020/12/24 07:20:50;;;;;;;2.80;1.60;;;3.10;99.90;;;;;;4972225;28;20197;-45
2020/12/24 07:23:27;;;;;;;2.53;1.90;;;3.20;99.90;;;;;;4979129;28;20249;-45
2020/12/24 07:25:54;;;;;;;3.00;2.00;;;3.20;99.90;;;;;;4978553;28;20298;-43
2020/12/24 07:28:19;;;;;;;3.00;2.50;;;3.30;99.90;;;;;;4981590;28;20205;-51
2020/12/24 07:30:58;;;;;;;3.00;2.20;;;3.30;99.90;;;;;;4966801;28;21221;-49
2020/12/24 07:33:24;;;;;;;3.53;2.13;;;3.30;99.90;;;;;;4980564;28;20197;-45
2020/12/24 07:35:50;;;;;;;3.20;2.73;;;3.40;99.90;;;;;;4969382;28;22549;-50
2020/12/24 07:38:22;;;;;;;3.37;3.07;;;3.40;99.90;;;;;;4983249;28;20215;-51
2020/12/24 07:40:48;;;;;;;3.50;2.70;;;3.40;99.90;;;;;;4980074;28;20917;-46
2020/12/24 07:43:13;;;;;;;4.27;2.43;;;3.40;99.90;;;;;;4970024;28;20220;-48
2020/12/24 07:45:40;;;;;;;4.30;2.67;;;3.50;99.90;;;;;;4962203;28;20221;-45
2020/12/24 07:48:17;;;;;;;3.10;2.47;;;3.50;99.90;;;;;;4976351;28;20182;-48
2020/12/24 07:50:44;;;;;;;4.13;2.90;;;3.50;99.90;;;;;;4980055;28;20220;-51
2020/12/24 07:53:10;;;;;;;3.50;2.80;;;3.50;99.90;;;;;;4975718;28;20555;-46
2020/12/24 07:55:36;;;;;;;5.50;3.00;;;3.60;99.90;;;;;;4973898;28;20185;-53
2020/12/24 07:58:06;;;;;;;4.17;3.13;;;3.60;99.90;;;;;;4985609;28;20178;-46
2020/12/24 08:00:56;;;;;;;4.73;2.80;;;3.60;99.90;;;;;;4970548;28;20197;-49
2020/12/24 08:03:21;;;;;;;3.13;2.17;;;3.70;99.90;;;;;;4960970;28;20544;-52
2020/12/24 08:05:48;;;;;;;6.93;3.17;;;3.70;99.90;;;;;;4973518;28;20240;-44
2020/12/24 08:08:23;;;;;;;3.10;2.63;;;3.70;99.90;;;;;;4977501;28;20196;-47
2020/12/24 08:10:49;;;;;;;4.00;2.30;;;3.70;99.90;;;;;;4979583;28;20213;-46
2020/12/24 08:13:14;;;;;;;4.67;2.30;;;3.70;99.90;;;;;;4985081;28;20236;-47
2020/12/24 08:15:45;;;;;;;4.33;2.33;;;3.70;99.90;;;;;;4976615;28;20197;-44
2020/12/24 08:18:12;;;;;;;4.43;2.40;;;3.70;99.90;;;;;;4968574;28;20185;-51
2020/12/24 08:21:00;;;;;;;4.00;1.93;;;3.80;99.90;;;;;;4977751;28;20224;-54
2020/12/24 08:23:59;;;;;;;3.40;2.00;;;3.80;99.90;;;;;;4975663;28;20231;-48
2020/12/24 08:26:25;;;;;;;2.20;1.90;;;3.80;99.90;;;;;;4989103;28;20224;-47
2020/12/24 08:28:52;;;;;;;2.13;1.57;;;3.80;99.90;;;;;;4982344;28;20190;-49
2020/12/24 08:31:19;;;;;;;3.20;1.53;;;3.80;99.90;;;;;;4983566;28;20193;-47
2020/12/24 08:33:49;;;;;;;4.20;1.87;;;3.80;99.90;;;;;;4963494;28;20197;-50
2020/12/24 08:36:16;;;;;;;5.10;1.93;;;3.90;99.90;;;;;;4986704;28;20921;-47
2020/12/24 08:38:42;;;;;;;2.87;1.53;;;3.90;99.90;;;;;;4984702;28;20192;-52
2020/12/24 08:41:19;;;;;;;4.17;1.90;;;3.90;99.90;;;;;;4985078;28;20318;-45
2020/12/24 08:43:52;;;;;;;4.50;2.13;;;3.90;99.90;;;;;;4989397;28;20177;-49
2020/12/24 08:46:17;;;;;;;3.70;1.93;;;3.90;99.90;;;;;;4981846;28;20221;-50
2020/12/24 08:48:43;;;;;;;3.17;1.80;;;3.90;99.90;;;;;;4971704;28;20201;-51
2020/12/24 08:51:19;;;;;;;5.77;2.10;;;3.90;99.90;;;;;;4971305;28;20269;-46
2020/12/24 08:53:45;;;;;;;6.63;1.93;;;4.00;99.90;;;;;;4964658;28;20177;-45
2020/12/24 08:56:15;;;;;;;3.97;2.13;;;4.00;99.90;;;;;;4971369;28;20201;-47
2020/12/24 08:58:51;;;;;;;6.77;3.20;;;4.00;99.90;;;;;;4977652;28;20666;-47
2020/12/24 09:01:21;;;;;;;3.07;2.40;;;4.00;99.90;;;;;;4965722;28;20186;-52
2020/12/24 09:03:47;;;;;;;5.40;2.70;;;4.00;99.90;;;;;;4955726;28;20208;-50
2020/12/24 09:06:14;;;;;;;5.30;3.33;;;4.00;99.90;;;;;;4980759;28;20685;-50
2020/12/24 09:08:48;;;;;;;4.30;2.93;;;4.00;99.90;;;;;;4978370;28;20187;-49
2020/12/24 09:11:30;;;;;;;6.13;3.10;;;4.10;99.90;;;;;;4977474;28;20248;-49
2020/12/24 09:13:57;;;;;;;5.37;3.50;;;4.10;99.90;;;;;;4985112;28;20177;-48
2020/12/24 09:16:23;;;;;;;6.03;3.60;;;4.10;99.90;;;;;;4984850;28;20196;-45
2020/12/24 09:19:09;;;;;;;6.10;3.63;;;4.10;99.90;;;;;;4985889;28;20178;-49
2020/12/24 09:21:35;;;;;;;5.10;4.23;;;4.20;99.90;;;;;;4975612;28;20193;-48
2020/12/24 09:24:11;;;;;;;8.47;4.40;;;4.10;99.90;;;;;;4984030;28;20193;-50
2020/12/24 09:26:47;;;;;;;5.47;4.50;;;4.20;99.90;;;;;;4974467;28;20242;-44
2020/12/24 09:29:14;;;;;;;7.10;4.50;;;4.20;99.90;;;;;;4971766;28;20173;-52
2020/12/24 09:31:40;;;;;;;6.53;4.80;;;4.20;99.90;;;;;;4976669;28;20206;-52
2020/12/24 09:34:07;;;;;;;5.23;4.70;;;4.30;99.90;;;;;;4985483;28;20185;-47
2020/12/24 09:36:32;;;;;;;6.20;4.37;;;4.20;99.90;;;;;;4962130;28;20221;-49
2020/12/24 09:38:58;;;;;;;8.07;4.70;;;4.30;99.90;;;;;;4981859;28;20221;-47
2020/12/24 09:41:24;;;;;;;6.40;4.70;;;4.30;99.90;;;;;;4975537;28;20217;-49
2020/12/24 09:43:49;;;;;;;5.67;5.03;;;4.30;99.90;;;;;;4983711;28;20276;-48
2020/12/24 09:46:15;;;;;;;6.33;4.63;;;4.40;99.90;;;;;;4987034;28;20236;-45
2020/12/24 09:48:41;;;;;;;7.07;4.50;;;4.30;99.90;;;;;;4982401;28;20240;-50
2020/12/24 09:51:07;;;;;;;7.67;5.47;;;4.40;99.90;;;;;;4957596;28;20190;-47
2020/12/24 09:53:32;;;;;;;8.50;4.83;;;4.40;99.90;;;;;;4979276;28;20201;-50
2020/12/24 09:55:58;;;;;;;7.47;5.53;;;4.40;99.90;;;;;;4989951;28;20180;-48
2020/12/24 09:58:23;;;;;;;6.70;5.03;;;4.40;99.90;;;;;;4984912;28;20182;-50
2020/12/24 10:00:49;;;;;;;7.60;4.97;;;4.50;99.90;;;;;;4984702;28;20213;-50
2020/12/24 10:03:14;;;;;;;7.70;5.17;;;4.50;99.90;;;;;;4974311;28;20197;-50
2020/12/24 10:05:40;;;;;;;7.43;5.00;;;4.50;99.90;;;;;;4972435;28;22223;-48
2020/12/24 10:08:05;;;;;;;10.23;5.70;;;4.50;99.90;;;;;;4976632;28;20182;-48
2020/12/24 10:10:31;;;;;;;9.43;6.40;;;4.50;99.90;;;;;;4971296;28;20255;-51
2020/12/24 10:12:56;;;;;;;8.53;5.33;;;4.50;99.90;;;;;;4971799;28;20268;-49
2020/12/24 10:15:22;;;;;;;7.10;4.70;;;4.60;99.90;;;;;;4969986;28;20174;-49
2020/12/24 10:17:47;;;;;;;6.80;4.77;;;4.50;99.90;;;;;;4974680;28;20174;-54
2020/12/24 10:20:13;;;;;;;9.77;5.30;;;4.50;99.90;;;;;;4966914;28;20178;-46
2020/12/24 10:22:38;;;;;;;7.93;5.47;;;4.50;99.90;;;;;;4975434;28;20201;-50
2020/12/24 10:25:04;;;;;;;8.57;5.73;;;4.60;99.90;;;;;;4994551;28;20569;-50
2020/12/24 10:27:30;;;;;;;14.77;6.07;;;4.60;99.90;;;;;;4985767;28;20209;-50
2020/12/24 10:29:55;;;;;;;9.60;6.23;;;4.60;99.90;;;;;;4980375;28;20209;-43
2020/12/24 10:32:20;;;;;;;9.80;6.40;;;4.60;99.90;;;;;;4983636;28;20224;-53
2020/12/24 10:34:46;;;;;;;11.27;7.07;;;4.70;99.90;;;;;;4987162;28;20650;-47
2020/12/24 10:37:11;;;;;;;13.70;6.33;;;4.70;99.90;;;;;;4965490;28;20220;-50
2020/12/24 10:39:37;;;;;;;15.17;7.47;;;4.70;99.90;;;;;;4973561;28;20158;-44
2020/12/24 10:42:03;;;;;;;17.53;7.73;;;4.70;99.90;;;;;;4971007;28;20209;-50
2020/12/24 10:44:28;;;;;;;18.67;9.00;;;4.70;99.90;;;;;;4978457;28;20246;-48
2020/12/24 10:46:55;;;;;;;14.73;8.13;;;4.80;99.90;;;;;;4996175;28;20201;-50
2020/12/24 10:49:21;;;;;;;18.07;8.80;;;4.80;99.90;;;;;;4991701;28;20178;-48
2020/12/24 10:51:47;;;;;;;22.97;9.43;;;4.80;99.90;;;;;;4995049;28;20199;-51
2020/12/24 10:54:12;;;;;;;24.73;10.90;;;4.80;99.90;;;;;;4969718;28;20190;-52
2020/12/24 10:56:37;;;;;;;25.50;11.10;;;4.80;99.90;;;;;;4977092;28;20182;-50
2020/12/24 10:59:03;;;;;;;20.23;10.67;;;4.80;99.90;;;;;;4981835;28;20198;-50
2020/12/24 11:01:28;;;;;;;17.20;9.57;;;4.90;99.90;;;;;;4977698;28;20577;-45
2020/12/24 11:03:54;;;;;;;21.00;10.87;;;4.90;99.90;;;;;;4986771;28;20170;-45
2020/12/24 11:06:24;;;;;;;23.37;11.33;;;4.90;99.90;;;;;;4983706;28;20216;-52
2020/12/24 11:08:50;;;;;;;20.70;9.80;;;4.90;99.90;;;;;;4968635;28;20247;-51
2020/12/24 11:11:17;;;;;;;18.77;10.33;;;4.90;99.90;;;;;;4976732;28;20597;-54
2020/12/24 11:13:43;;;;;;;20.63;10.93;;;4.90;99.90;;;;;;4980688;28;20255;-46
2020/12/24 11:16:10;;;;;;;22.47;10.37;;;5.00;99.90;;;;;;4985644;28;20186;-54
2020/12/24 11:18:38;;;;;;;23.03;10.67;;;5.00;99.90;;;;;;4984074;28;20245;-45
2020/12/24 11:21:04;;;;;;;20.87;10.13;;;5.00;99.90;;;;;;4974292;28;20177;-48
2020/12/24 11:23:29;;;;;;;21.73;12.03;;;5.10;99.90;;;;;;4967562;28;20248;-51
2020/12/24 11:25:55;;;;;;;21.03;11.47;;;5.00;99.90;;;;;;4970772;28;20292;-46
2020/12/24 11:28:20;;;;;;;20.80;11.73;;;5.10;99.90;;;;;;4976836;28;20186;-46
2020/12/24 11:30:46;;;;;;;25.50;11.87;;;5.10;99.90;;;;;;4972142;28;20262;-57
2020/12/24 11:33:11;;;;;;;23.50;12.23;;;5.10;99.90;;;;;;4981287;28;20197;-53
2020/12/24 11:35:37;;;;;;;22.57;11.83;;;5.10;99.90;;;;;;4974679;28;20604;-55
2020/12/24 11:38:03;;;;;;;21.37;11.63;;;5.10;99.90;;;;;;4983924;28;20189;-58
2020/12/24 11:40:28;;;;;;;18.93;10.83;;;5.10;99.90;;;;;;4964459;28;20280;-54
2020/12/24 11:42:54;;;;;;;20.83;11.60;;;5.10;99.90;;;;;;4969933;28;20988;-50
2020/12/24 11:45:19;;;;;;;20.43;11.07;;;5.10;99.90;;;;;;4984001;28;20269;-55
2020/12/24 11:47:45;;;;;;;23.00;10.90;;;5.20;99.90;;;;;;4979062;28;20220;-52
2020/12/24 11:50:10;;;;;;;18.77;11.17;;;5.20;99.90;;;;;;4985162;28;20190;-50
2020/12/24 11:52:37;;;;;;;22.27;11.87;;;5.20;99.90;;;;;;4977357;28;20310;-53
2020/12/24 11:55:04;;;;;;;19.67;9.77;;;5.20;99.90;;;;;;4972536;28;20198;-55
2020/12/24 11:57:30;;;;;;;21.67;10.63;;;5.20;99.90;;;;;;4980470;28;20190;-54
2020/12/24 11:59:55;;;;;;;19.20;9.77;;;5.20;99.90;;;;;;4969842;28;20198;-57
2020/12/24 12:02:21;;;;;;;21.90;11.73;;;5.20;99.90;;;;;;4978602;28;20289;-55
2020/12/24 12:04:46;;;;;;;17.73;10.30;;;5.20;99.90;;;;;;4968276;28;20871;-51
2020/12/24 12:07:12;;;;;;;21.53;10.97;;;5.20;99.90;;;;;;4979488;28;21354;-53
2020/12/24 12:09:37;;;;;;;21.43;11.07;;;5.20;99.90;;;;;;4966704;28;20182;-53
2020/12/24 12:12:03;;;;;;;19.50;10.97;;;5.30;99.90;;;;;;4962701;28;20686;-57
2020/12/24 12:14:28;;;;;;;22.67;10.63;;;5.30;99.90;;;;;;4978671;28;20193;-53
2020/12/24 12:16:54;;;;;;;23.27;11.77;;;5.30;99.90;;;;;;4964920;28;20876;-51
2020/12/24 12:19:19;;;;;;;21.00;10.80;;;5.30;99.90;;;;;;4975470;28;20189;-54
2020/12/24 12:21:45;;;;;;;15.40;8.60;;;5.40;99.90;;;;;;4972399;28;20300;-52
2020/12/24 12:24:11;;;;;;;16.17;8.00;;;5.40;99.90;;;;;;4968679;28;20185;-55
2020/12/24 12:26:36;;;;;;;16.57;8.60;;;5.40;99.90;;;;;;4961853;28;20205;-53
2020/12/24 12:29:02;;;;;;;13.37;7.93;;;5.40;99.90;;;;;;4977982;28;20332;-54
2020/12/24 12:31:27;;;;;;;15.00;7.90;;;5.40;99.90;;;;;;4970024;28;20205;-55
2020/12/24 12:33:54;;;;;;;12.93;7.07;;;5.40;99.90;;;;;;4971900;28;20182;-50
2020/12/24 12:36:20;;;;;;;9.10;5.97;;;5.40;99.90;;;;;;4968856;28;20905;-52
2020/12/24 12:38:47;;;;;;;9.17;6.20;;;5.40;99.90;;;;;;4984145;28;20185;-48
2020/12/24 12:41:14;;;;;;;9.20;5.80;;;5.30;99.90;;;;;;4971920;28;20428;-49
2020/12/24 12:43:40;;;;;;;13.73;7.60;;;5.40;99.90;;;;;;4955527;28;20224;-52
2020/12/24 12:46:06;;;;;;;17.67;6.93;;;5.40;99.90;;;;;;4973886;28;20213;-59
2020/12/24 12:48:32;;;;;;;12.83;7.50;;;5.40;99.90;;;;;;4975939;28;20212;-49
2020/12/24 12:50:57;;;;;;;11.10;6.90;;;5.40;99.90;;;;;;4967683;28;20218;-56
2020/12/24 12:53:23;;;;;;;9.37;6.43;;;5.40;99.90;;;;;;4972107;28;20236;-46
2020/12/24 12:55:48;;;;;;;8.33;5.73;;;5.40;99.90;;;;;;4975397;28;20194;-49